Time;durP1;ratioP1;P1;durP2;ratioP2;P2;SDS_P1;SDS_P2;PMS_P1;PMS_P2;Temp;Humidity;BMP_temperature;BMP_pressure;BME280_temperature;BME280_humidity;BME280_pressure;Samples;Min_cycle;Max_cycle;Signal;HPM_P1;HPM_P2
2023/10/30 00:01:29;;;;;;;955.05;646.65;;;26.30;99.90;;;;;;5073114;28;20077;-63
2023/10/30 00:03:56;;;;;;;927.92;635.83;;;26.30;99.90;;;;;;5073086;28;20021;-63
2023/10/30 00:06:23;;;;;;;929.25;639.90;;;26.40;99.90;;;;;;5072935;28;20020;-64
2023/10/30 00:08:49;;;;;;;909.80;628.45;;;26.50;99.90;;;;;;5073062;28;20048;-63
2023/10/30 00:11:16;;;;;;;913.08;628.30;;;26.50;99.90;;;;;;5072885;28;20013;-64
2023/10/30 00:13:43;;;;;;;881.60;612.70;;;26.60;99.90;;;;;;5072960;28;20022;-64
2023/10/30 00:16:10;;;;;;;838.05;599.35;;;26.60;99.90;;;;;;5073128;28;20097;-64
2023/10/30 00:18:41;;;;;;;837.53;585.33;;;26.70;99.90;;;;;;5073067;28;20033;-64
2023/10/30 00:21:08;;;;;;;816.83;568.60;;;26.80;99.90;;;;;;5072944;28;20031;-63
2023/10/30 00:23:36;;;;;;;762.33;544.22;;;26.80;99.90;;;;;;5072746;28;20029;-64
2023/10/30 00:26:04;;;;;;;729.75;523.58;;;26.80;99.90;;;;;;5072641;28;20029;-64
2023/10/30 00:28:31;;;;;;;722.30;519.97;;;26.90;99.90;;;;;;5072738;28;20393;-63
2023/10/30 00:30:59;;;;;;;700.95;501.38;;;26.90;99.90;;;;;;5072844;28;20031;-63
2023/10/30 00:33:26;;;;;;;657.22;480.00;;;27.00;99.90;;;;;;5072616;28;20029;-63
2023/10/30 00:35:53;;;;;;;645.00;464.70;;;27.10;99.90;;;;;;5072710;28;20108;-65
2023/10/30 00:38:19;;;;;;;616.38;450.55;;;27.10;99.90;;;;;;5074328;28;20473;-65
2023/10/30 00:40:46;;;;;;;605.28;435.25;;;27.20;99.90;;;;;;5076578;28;20024;-66
2023/10/30 00:43:13;;;;;;;591.42;426.13;;;27.30;99.90;;;;;;5076665;28;20025;-65
2023/10/30 00:45:39;;;;;;;575.35;413.42;;;27.40;99.90;;;;;;5076134;28;20024;-66
2023/10/30 00:48:06;;;;;;;579.67;405.77;;;27.50;99.90;;;;;;5075036;28;20435;-66
2023/10/30 00:50:33;;;;;;;563.97;393.48;;;27.50;99.90;;;;;;5076276;28;20023;-66
2023/10/30 00:53:00;;;;;;;526.25;368.05;;;27.60;99.90;;;;;;5076315;28;20420;-65
2023/10/30 00:55:27;;;;;;;510.02;349.65;;;27.80;99.90;;;;;;5075997;28;20465;-65
2023/10/30 00:57:54;;;;;;;510.25;354.75;;;27.90;99.90;;;;;;5076324;28;20107;-66
2023/10/30 01:00:20;;;;;;;498.73;343.15;;;28.00;99.90;;;;;;5076051;28;20032;-65
2023/10/30 01:02:47;;;;;;;481.98;332.48;;;28.00;99.90;;;;;;5075895;28;20059;-65
2023/10/30 01:05:14;;;;;;;484.88;332.70;;;28.10;99.90;;;;;;5075884;28;20081;-65
2023/10/30 01:07:41;;;;;;;493.80;336.50;;;28.10;99.90;;;;;;5075920;28;20389;-65
2023/10/30 01:10:08;;;;;;;476.13;321.38;;;28.20;99.90;;;;;;5075849;28;20517;-66
2023/10/30 01:12:34;;;;;;;462.13;313.63;;;28.20;99.90;;;;;;5075952;28;20021;-66
2023/10/30 01:15:01;;;;;;;453.73;305.15;;;28.30;99.90;;;;;;5075854;28;20441;-65
2023/10/30 01:17:28;;;;;;;444.27;294.63;;;28.40;99.90;;;;;;5075452;28;20020;-65
2023/10/30 01:19:55;;;;;;;425.85;283.48;;;28.40;99.90;;;;;;5075669;28;20024;-65
2023/10/30 01:22:21;;;;;;;424.55;282.73;;;28.50;99.90;;;;;;5075839;28;20028;-66
2023/10/30 01:24:48;;;;;;;412.08;271.08;;;28.60;99.90;;;;;;5075309;28;20037;-66
2023/10/30 01:27:15;;;;;;;407.67;274.35;;;28.70;99.90;;;;;;5075776;28;20025;-65
2023/10/30 01:29:42;;;;;;;404.70;269.65;;;28.70;99.90;;;;;;5075687;28;20017;-66
2023/10/30 01:32:08;;;;;;;410.92;265.80;;;28.80;99.90;;;;;;5075406;28;20016;-65
2023/10/30 01:34:35;;;;;;;394.45;250.73;;;28.90;99.90;;;;;;5075706;28;20012;-66
2023/10/30 01:37:02;;;;;;;352.50;237.70;;;29.00;99.90;;;;;;5075540;28;20025;-65
2023/10/30 01:39:29;;;;;;;324.85;218.07;;;29.10;99.90;;;;;;5075318;28;20048;-66
2023/10/30 01:41:55;;;;;;;287.67;186.68;;;29.10;99.90;;;;;;5075518;28;20021;-66
2023/10/30 01:44:22;;;;;;;280.85;185.43;;;29.20;99.90;;;;;;5075538;28;20061;-67
2023/10/30 01:46:49;;;;;;;307.55;203.27;;;29.30;99.90;;;;;;5075187;28;20021;-66
2023/10/30 01:49:16;;;;;;;273.65;177.73;;;29.30;99.90;;;;;;5075240;28;20377;-64
2023/10/30 01:51:43;;;;;;;237.82;156.27;;;29.40;99.90;;;;;;5075367;28;20020;-65
2023/10/30 01:54:10;;;;;;;244.35;159.35;;;29.50;99.90;;;;;;5075122;28;20012;-66
2023/10/30 01:56:36;;;;;;;241.98;159.20;;;29.60;99.90;;;;;;5075213;28;20027;-65
2023/10/30 01:59:03;;;;;;;242.18;159.70;;;29.60;99.90;;;;;;5075312;28;20393;-65
2023/10/30 02:01:31;;;;;;;245.55;160.82;;;29.70;99.90;;;;;;5075347;28;20029;-66
2023/10/30 02:03:58;;;;;;;204.43;138.27;;;29.80;99.90;;;;;;5074947;28;20492;-65
2023/10/30 02:06:25;;;;;;;204.95;139.55;;;29.90;99.90;;;;;;5074955;28;20025;-65
2023/10/30 02:08:51;;;;;;;194.15;130.07;;;30.00;99.90;;;;;;5074847;28;20487;-65
2023/10/30 02:11:18;;;;;;;175.95;124.53;;;30.10;99.90;;;;;;5074828;28;20031;-65
2023/10/30 02:13:56;;;;;;;184.63;119.00;;;30.10;99.90;;;;;;5074856;28;20024;-66
2023/10/30 02:16:23;;;;;;;176.00;118.45;;;30.30;99.90;;;;;;5074727;28;20082;-66
2023/10/30 02:18:50;;;;;;;198.82;129.70;;;30.40;99.90;;;;;;5074863;28;20024;-66
2023/10/30 02:21:17;;;;;;;202.68;129.60;;;30.40;99.90;;;;;;5074781;28;20025;-65
2023/10/30 02:23:44;;;;;;;196.32;132.07;;;30.50;99.90;;;;;;5074253;28;20103;-65
2023/10/30 02:26:11;;;;;;;191.77;129.35;;;30.50;99.90;;;;;;5074399;28;20033;-65
2023/10/30 02:28:38;;;;;;;199.40;136.23;;;30.50;99.90;;;;;;5074519;28;20367;-65
2023/10/30 02:31:04;;;;;;;195.30;133.43;;;30.60;99.90;;;;;;5074196;28;20059;-66
2023/10/30 02:33:31;;;;;;;194.48;130.13;;;30.60;99.90;;;;;;5074310;28;20090;-66
2023/10/30 02:35:58;;;;;;;190.73;126.95;;;30.70;99.90;;;;;;5074558;28;20052;-65
2023/10/30 02:38:24;;;;;;;169.05;115.57;;;30.70;99.90;;;;;;5074090;28;20435;-65
2023/10/30 02:40:51;;;;;;;174.30;110.28;;;30.80;99.90;;;;;;5074370;28;20031;-66
2023/10/30 02:43:18;;;;;;;157.85;103.45;;;30.90;99.90;;;;;;5074104;28;20032;-66
2023/10/30 02:45:45;;;;;;;156.02;105.82;;;31.00;99.90;;;;;;5073877;28;20025;-66
2023/10/30 02:48:11;;;;;;;137.40;94.95;;;31.00;99.90;;;;;;5073984;28;20442;-66
2023/10/30 02:50:38;;;;;;;155.07;104.80;;;31.00;99.90;;;;;;5073917;28;20035;-65
2023/10/30 02:53:05;;;;;;;149.85;100.95;;;31.00;99.90;;;;;;5074036;28;20016;-65
2023/10/30 02:55:32;;;;;;;149.50;100.93;;;31.10;99.90;;;;;;5073923;28;20028;-65
2023/10/30 02:57:59;;;;;;;148.52;98.60;;;31.20;99.90;;;;;;5073807;28;20032;-65
2023/10/30 03:00:26;;;;;;;159.80;106.13;;;31.30;99.90;;;;;;5073293;28;20451;-65
2023/10/30 03:02:53;;;;;;;172.57;112.30;;;31.30;99.90;;;;;;5073982;28;20028;-65
2023/10/30 03:05:20;;;;;;;185.40;121.70;;;31.40;99.90;;;;;;5073688;28;20036;-65
2023/10/30 03:07:46;;;;;;;206.15;134.15;;;31.60;99.90;;;;;;5073802;28;20070;-65
2023/10/30 03:10:13;;;;;;;203.20;133.57;;;31.60;99.90;;;;;;5073476;28;20028;-65
2023/10/30 03:12:40;;;;;;;239.90;151.23;;;31.50;99.90;;;;;;5073793;28;20031;-66
2023/10/30 03:15:07;;;;;;;249.40;160.95;;;31.50;99.90;;;;;;5073608;28;20432;-65
2023/10/30 03:17:34;;;;;;;265.48;171.52;;;31.60;99.90;;;;;;5073378;28;20079;-66
2023/10/30 03:20:01;;;;;;;244.60;158.27;;;31.70;99.90;;;;;;5073786;28;20481;-66
2023/10/30 03:22:27;;;;;;;292.88;185.45;;;31.80;99.90;;;;;;5074163;28;20040;-66
2023/10/30 03:24:54;;;;;;;330.58;206.77;;;31.80;99.90;;;;;;5073201;28;20131;-66
2023/10/30 03:27:20;;;;;;;301.52;190.10;;;31.80;99.90;;;;;;5073352;28;20393;-66
2023/10/30 03:29:47;;;;;;;305.90;196.43;;;31.80;99.90;;;;;;5073384;28;20035;-67
2023/10/30 03:32:14;;;;;;;286.42;187.45;;;31.90;99.90;;;;;;5073258;28;20016;-66
2023/10/30 03:34:40;;;;;;;299.92;192.80;;;32.00;99.90;;;;;;5073370;28;20086;-66
2023/10/30 03:37:08;;;;;;;308.55;197.45;;;32.10;99.90;;;;;;5073257;28;20531;-67
2023/10/30 03:39:35;;;;;;;306.85;204.73;;;32.10;99.90;;;;;;5073065;28;20025;-67
2023/10/30 03:42:02;;;;;;;292.73;190.98;;;32.20;99.90;;;;;;5073404;28;20047;-67
2023/10/30 03:44:29;;;;;;;270.90;169.55;;;32.30;99.90;;;;;;5072431;28;20020;-65
2023/10/30 03:46:56;;;;;;;280.27;176.40;;;32.30;99.90;;;;;;5070766;28;20481;-64
2023/10/30 03:49:23;;;;;;;291.73;190.00;;;32.30;99.90;;;;;;5071924;28;20039;-63
2023/10/30 03:51:51;;;;;;;255.88;169.32;;;32.40;99.90;;;;;;5071983;28;20031;-62
2023/10/30 03:54:18;;;;;;;274.08;176.82;;;32.40;99.90;;;;;;5071922;28;20492;-62
2023/10/30 03:56:44;;;;;;;305.50;200.20;;;32.30;99.90;;;;;;5072582;28;20035;-63
2023/10/30 03:59:11;;;;;;;314.92;203.70;;;32.50;99.90;;;;;;5063736;28;20048;-65
2023/10/30 04:01:39;;;;;;;305.05;194.68;;;32.50;99.90;;;;;;5062821;28;20024;-64
2023/10/30 04:04:07;;;;;;;346.25;222.50;;;32.50;99.90;;;;;;5063061;28;20017;-65
2023/10/30 04:06:36;;;;;;;352.27;229.00;;;32.50;99.90;;;;;;5063028;28;20029;-64
2023/10/30 04:09:06;;;;;;;390.80;265.52;;;32.40;99.90;;;;;;5061938;28;20016;-63
2023/10/30 04:11:33;;;;;;;383.05;247.98;;;32.40;99.90;;;;;;5061208;28;20461;-65
2023/10/30 04:14:00;;;;;;;394.05;265.52;;;32.40;99.90;;;;;;5063991;28;20496;-65
2023/10/30 04:16:28;;;;;;;366.85;245.43;;;32.40;99.90;;;;;;5066591;28;20046;-64
2023/10/30 04:18:55;;;;;;;335.50;220.77;;;32.40;99.90;;;;;;5065699;28;20025;-64
2023/10/30 04:21:21;;;;;;;357.67;237.77;;;32.50;99.90;;;;;;5064693;28;20105;-65
2023/10/30 04:23:48;;;;;;;417.63;287.20;;;32.60;99.90;;;;;;5066316;28;20024;-66
2023/10/30 04:26:15;;;;;;;386.33;247.38;;;32.60;99.90;;;;;;5061618;28;20120;-68
2023/10/30 04:28:43;;;;;;;365.42;237.25;;;32.60;99.90;;;;;;5056748;28;20469;-66
2023/10/30 04:31:09;;;;;;;282.67;181.32;;;32.60;99.90;;;;;;5056557;28;20056;-66
2023/10/30 04:33:36;;;;;;;247.93;156.27;;;32.80;99.90;;;;;;5056699;28;20355;-67
2023/10/30 04:36:03;;;;;;;264.70;169.13;;;32.80;99.90;;;;;;5056689;28;20042;-67
2023/10/30 04:38:31;;;;;;;240.55;153.98;;;32.80;99.90;;;;;;5056455;28;20431;-67
2023/10/30 04:41:02;;;;;;;236.40;150.93;;;32.80;99.90;;;;;;5056543;28;20033;-68
2023/10/30 04:43:28;;;;;;;223.95;143.25;;;32.80;99.90;;;;;;5056451;28;20056;-68
2023/10/30 04:45:55;;;;;;;229.32;146.27;;;32.80;99.90;;;;;;5056095;28;20496;-67
2023/10/30 04:48:22;;;;;;;243.73;155.45;;;32.90;99.90;;;;;;5056575;28;20048;-66
2023/10/30 04:50:48;;;;;;;222.23;142.43;;;33.00;99.90;;;;;;5056418;28;20028;-67
2023/10/30 04:53:15;;;;;;;212.02;135.80;;;33.10;99.90;;;;;;5064924;28;20036;-67
2023/10/30 04:55:42;;;;;;;161.90;108.55;;;33.10;99.90;;;;;;5076271;28;20439;-67
2023/10/30 04:58:08;;;;;;;113.47;78.97;;;33.20;99.90;;;;;;5076200;28;20028;-67
2023/10/30 05:00:35;;;;;;;112.03;78.50;;;33.10;99.90;;;;;;5076082;28;20032;-67
2023/10/30 05:03:02;;;;;;;97.18;67.15;;;33.10;99.90;;;;;;5076389;28;20025;-67
2023/10/30 05:05:29;;;;;;;94.95;65.13;;;33.10;99.90;;;;;;5076016;28;20025;-67
2023/10/30 05:07:56;;;;;;;88.45;62.17;;;33.20;99.90;;;;;;5075848;28;20539;-67
2023/10/30 05:10:23;;;;;;;92.85;66.10;;;33.30;99.90;;;;;;5076068;28;20025;-66
2023/10/30 05:12:50;;;;;;;92.35;62.20;;;33.30;99.90;;;;;;5076062;28;20020;-66
2023/10/30 05:15:17;;;;;;;95.50;66.57;;;33.40;99.90;;;;;;5075737;28;20036;-66
2023/10/30 05:17:44;;;;;;;104.15;69.55;;;33.50;99.90;;;;;;5076027;28;20074;-67
2023/10/30 05:20:12;;;;;;;97.05;65.10;;;33.50;99.90;;;;;;5076073;28;20032;-66
2023/10/30 05:22:40;;;;;;;100.70;68.22;;;33.50;99.90;;;;;;5075501;28;20026;-67
2023/10/30 05:25:07;;;;;;;103.18;67.28;;;33.60;99.90;;;;;;5075077;28;20040;-66
2023/10/30 05:27:33;;;;;;;95.07;67.00;;;33.50;99.90;;;;;;5075731;28;20012;-66
2023/10/30 05:30:01;;;;;;;92.78;65.82;;;33.60;99.90;;;;;;5075516;28;20016;-66
2023/10/30 05:32:27;;;;;;;97.45;68.50;;;33.60;99.90;;;;;;5075461;28;20035;-70
2023/10/30 05:34:54;;;;;;;94.30;68.38;;;33.60;99.90;;;;;;5075592;28;20389;-66
2023/10/30 05:37:21;;;;;;;104.97;70.35;;;33.70;99.90;;;;;;5069352;28;20024;-66
2023/10/30 05:39:50;;;;;;;104.75;71.10;;;33.80;99.90;;;;;;5075438;28;20104;-66
2023/10/30 05:42:16;;;;;;;113.63;77.47;;;33.80;99.90;;;;;;5075379;28;20028;-66
2023/10/30 05:44:44;;;;;;;116.43;76.53;;;33.80;99.90;;;;;;5075049;28;20021;-65
2023/10/30 05:47:12;;;;;;;121.07;78.53;;;33.80;99.90;;;;;;5075387;28;20020;-68
2023/10/30 05:49:40;;;;;;;118.38;76.28;;;34.00;99.60;;;;;;5075201;28;20032;-67
2023/10/30 05:52:08;;;;;;;117.18;76.63;;;34.00;98.20;;;;;;5074984;28;20075;-64
2023/10/30 05:54:35;;;;;;;117.47;77.03;;;34.10;99.20;;;;;;5075483;28;20024;-66
2023/10/30 05:57:01;;;;;;;127.10;83.22;;;34.20;99.20;;;;;;5075205;28;20395;-66
2023/10/30 05:59:28;;;;;;;121.50;80.90;;;34.20;98.80;;;;;;5075046;28;20021;-67
2023/10/30 06:01:55;;;;;;;121.20;80.13;;;34.30;99.30;;;;;;5075118;28;20029;-67
2023/10/30 06:04:22;;;;;;;117.93;79.63;;;34.40;98.90;;;;;;5074986;28;20447;-66
2023/10/30 06:06:49;;;;;;;133.20;89.55;;;34.40;98.70;;;;;;5074697;28;20016;-67
2023/10/30 06:09:15;;;;;;;126.75;81.38;;;34.40;97.30;;;;;;5074843;28;20100;-67
2023/10/30 06:11:48;;;;;;;129.10;85.72;;;34.40;98.10;;;;;;5074785;28;20055;-68
2023/10/30 06:14:15;;;;;;;132.43;88.97;;;34.50;98.10;;;;;;5074455;28;20366;-67
2023/10/30 06:16:43;;;;;;;133.20;86.93;;;34.60;97.90;;;;;;5074667;28;20025;-68
2023/10/30 06:19:10;;;;;;;125.97;83.22;;;34.60;97.20;;;;;;5074617;28;20099;-67
2023/10/30 06:21:39;;;;;;;136.00;86.82;;;34.60;97.50;;;;;;5074410;28;20028;-70
2023/10/30 06:24:07;;;;;;;147.43;98.25;;;34.70;96.60;;;;;;5074357;28;20098;-67
2023/10/30 06:26:33;;;;;;;150.77;100.43;;;34.70;95.90;;;;;;5074437;28;20032;-68
2023/10/30 06:29:00;;;;;;;137.15;94.88;;;34.70;95.90;;;;;;5074302;28;20035;-66
2023/10/30 06:31:27;;;;;;;126.30;89.28;;;34.60;95.80;;;;;;5074228;28;20373;-67
2023/10/30 06:33:54;;;;;;;126.00;88.72;;;34.60;96.40;;;;;;5074549;28;20100;-67
2023/10/30 06:36:21;;;;;;;146.73;96.78;;;34.60;96.50;;;;;;5073226;28;20533;-64
2023/10/30 06:38:48;;;;;;;149.30;98.63;;;34.70;96.70;;;;;;5074351;28;20064;-64
2023/10/30 06:41:15;;;;;;;153.52;105.82;;;34.70;96.70;;;;;;5074181;28;20025;-65
2023/10/30 06:43:42;;;;;;;141.02;98.88;;;34.70;95.60;;;;;;5066220;28;20029;-64
2023/10/30 06:46:09;;;;;;;134.70;93.35;;;34.60;95.60;;;;;;5053912;28;20036;-64
2023/10/30 06:48:36;;;;;;;140.02;94.45;;;34.50;96.00;;;;;;5063778;28;20032;-64
2023/10/30 06:51:03;;;;;;;136.45;97.13;;;34.50;96.00;;;;;;5061163;28;20024;-63
2023/10/30 06:53:30;;;;;;;132.27;95.53;;;34.50;95.90;;;;;;5063152;28;20491;-63
2023/10/30 06:55:57;;;;;;;142.02;101.20;;;34.50;95.90;;;;;;5063063;28;20477;-64
2023/10/30 06:58:24;;;;;;;153.00;104.50;;;34.50;96.10;;;;;;5070269;28;20074;-63
2023/10/30 07:00:51;;;;;;;152.30;106.72;;;34.40;96.20;;;;;;5069517;28;20021;-64
2023/10/30 07:03:19;;;;;;;143.45;101.20;;;34.40;96.10;;;;;;5064196;28;20381;-64
2023/10/30 07:05:45;;;;;;;144.35;101.90;;;34.40;96.20;;;;;;5062933;28;20031;-63
2023/10/30 07:08:12;;;;;;;191.98;140.75;;;34.40;96.20;;;;;;5059956;28;20369;-64
2023/10/30 07:10:39;;;;;;;168.77;119.95;;;34.40;96.30;;;;;;5073972;28;20036;-65
2023/10/30 07:13:06;;;;;;;212.88;146.65;;;34.40;97.10;;;;;;5073887;28;20423;-64
2023/10/30 07:15:33;;;;;;;228.05;153.15;;;34.30;97.00;;;;;;5073913;28;20392;-64
2023/10/30 07:18:00;;;;;;;268.50;199.82;;;34.30;97.10;;;;;;5073560;28;20059;-64
2023/10/30 07:20:26;;;;;;;178.25;122.07;;;34.30;97.70;;;;;;5067338;28;20036;-69
2023/10/30 07:22:53;;;;;;;162.13;116.60;;;34.30;97.60;;;;;;5062465;28;20021;-69
2023/10/30 07:25:20;;;;;;;167.75;112.60;;;34.30;97.90;;;;;;5062568;28;20053;-68
2023/10/30 07:27:47;;;;;;;169.88;119.28;;;34.30;97.90;;;;;;5063844;28;20404;-69
2023/10/30 07:30:14;;;;;;;169.68;114.22;;;34.30;97.50;;;;;;5062453;28;20358;-69
2023/10/30 07:32:41;;;;;;;173.82;119.90;;;34.30;97.70;;;;;;5062620;28;20029;-68
2023/10/30 07:35:08;;;;;;;175.48;123.93;;;34.30;97.80;;;;;;5063787;28;20508;-65
2023/10/30 07:37:35;;;;;;;177.15;125.60;;;34.20;97.90;;;;;;5062337;28;20029;-68
2023/10/30 07:40:03;;;;;;;184.05;126.68;;;34.20;97.80;;;;;;5062358;28;20028;-73
2023/10/30 07:42:30;;;;;;;169.98;122.80;;;34.20;98.00;;;;;;5063708;28;20429;-70
2023/10/30 07:44:57;;;;;;;191.10;127.53;;;34.20;98.10;;;;;;5062468;28;20239;-73
2023/10/30 07:47:23;;;;;;;180.93;127.47;;;34.10;98.40;;;;;;5061939;28;20013;-70
2023/10/30 07:49:50;;;;;;;169.35;119.45;;;34.10;98.40;;;;;;5063664;28;20354;-67
2023/10/30 07:52:17;;;;;;;183.10;121.82;;;34.10;98.60;;;;;;5062368;28;20029;-71
2023/10/30 07:54:43;;;;;;;165.27;117.95;;;34.10;98.30;;;;;;5061821;28;20104;-71
2023/10/30 07:57:10;;;;;;;164.13;116.20;;;33.90;98.40;;;;;;5061891;28;20353;-71
2023/10/30 07:59:37;;;;;;;161.88;114.07;;;33.80;98.20;;;;;;5063535;28;20040;-71
2023/10/30 08:02:04;;;;;;;161.05;112.95;;;33.80;98.50;;;;;;5062532;28;20032;-70
2023/10/30 08:04:30;;;;;;;160.18;114.53;;;33.80;98.50;;;;;;5061711;28;20067;-71
2023/10/30 08:06:57;;;;;;;162.35;117.22;;;33.90;98.90;;;;;;5063276;28;20017;-72
2023/10/30 08:09:24;;;;;;;169.75;116.93;;;33.90;98.60;;;;;;5065101;28;20071;-70
2023/10/30 08:11:51;;;;;;;169.48;116.20;;;33.80;98.50;;;;;;5063072;28;20025;-68
2023/10/30 08:14:17;;;;;;;155.25;111.53;;;33.80;98.20;;;;;;5062758;28;20074;-70
2023/10/30 08:16:44;;;;;;;170.30;118.72;;;33.80;98.00;;;;;;5064278;28;20024;-64
2023/10/30 08:19:11;;;;;;;162.05;112.38;;;33.80;97.80;;;;;;5070123;28;20024;-68
2023/10/30 08:21:37;;;;;;;161.70;114.43;;;33.70;98.00;;;;;;5072795;28;20051;-72
2023/10/30 08:24:04;;;;;;;148.82;107.40;;;33.80;98.80;;;;;;5072887;28;20121;-70
2023/10/30 08:26:32;;;;;;;135.80;100.22;;;33.80;98.30;;;;;;5063882;28;20507;-67
2023/10/30 08:28:59;;;;;;;140.00;98.93;;;33.80;97.80;;;;;;5067364;28;20380;-70
2023/10/30 08:31:25;;;;;;;143.32;100.35;;;33.80;98.20;;;;;;5052611;28;20469;-66
2023/10/30 08:33:52;;;;;;;135.77;98.85;;;33.80;97.80;;;;;;5055715;28;20033;-67
2023/10/30 08:36:23;;;;;;;136.90;93.80;;;33.80;98.10;;;;;;5052195;28;20060;-67
2023/10/30 08:38:50;;;;;;;139.82;96.32;;;33.80;98.20;;;;;;5051959;28;20039;-65
2023/10/30 08:41:17;;;;;;;130.68;90.50;;;33.80;98.50;;;;;;5051193;28;20024;-65
2023/10/30 08:43:45;;;;;;;135.63;89.40;;;33.80;97.40;;;;;;5050906;28;20090;-64
2023/10/30 08:46:18;;;;;;;132.85;89.68;;;33.80;96.60;;;;;;5052075;28;20112;-65
2023/10/30 08:48:46;;;;;;;151.73;96.15;;;33.70;96.80;;;;;;5052217;28;20040;-65
2023/10/30 08:51:13;;;;;;;154.80;99.00;;;33.80;97.10;;;;;;5052073;28;20025;-65
2023/10/30 08:53:40;;;;;;;146.40;93.85;;;33.80;97.40;;;;;;5052297;28;20040;-65
2023/10/30 08:56:07;;;;;;;102.78;70.30;;;33.80;98.00;;;;;;5052430;28;20074;-65
2023/10/30 08:58:34;;;;;;;96.40;64.88;;;33.80;97.70;;;;;;5052703;28;20435;-64
2023/10/30 09:01:00;;;;;;;87.85;61.92;;;33.80;98.60;;;;;;5056244;28;20017;-67
2023/10/30 09:03:27;;;;;;;83.78;58.40;;;33.80;98.40;;;;;;5056400;28;20104;-66
2023/10/30 09:05:54;;;;;;;89.72;64.50;;;33.80;98.80;;;;;;5055786;28;20047;-64
2023/10/30 09:08:21;;;;;;;105.90;78.72;;;33.80;98.60;;;;;;5056025;28;20025;-66
2023/10/30 09:10:47;;;;;;;114.90;80.53;;;33.80;98.80;;;;;;5056249;28;20040;-67
2023/10/30 09:13:14;;;;;;;100.13;75.13;;;33.80;98.20;;;;;;5056010;28;20155;-66
2023/10/30 09:15:41;;;;;;;144.00;105.03;;;33.80;97.60;;;;;;5055858;28;20079;-66
2023/10/30 09:18:08;;;;;;;206.05;158.77;;;33.80;97.00;;;;;;5055871;28;20041;-65
2023/10/30 09:20:34;;;;;;;75.13;51.78;;;33.70;96.00;;;;;;5055753;28;20028;-64
2023/10/30 09:23:01;;;;;;;75.95;53.13;;;33.70;95.30;;;;;;5055988;28;20167;-66
2023/10/30 09:25:27;;;;;;;79.63;57.00;;;33.60;95.70;;;;;;5055217;28;20497;-66
2023/10/30 09:27:55;;;;;;;90.07;61.35;;;33.60;96.10;;;;;;5055494;28;20082;-65
2023/10/30 09:30:27;;;;;;;114.82;75.55;;;33.60;96.70;;;;;;5055557;28;20029;-66
2023/10/30 09:32:54;;;;;;;129.65;80.57;;;33.60;96.90;;;;;;5055511;28;20104;-66
2023/10/30 09:35:21;;;;;;;118.90;79.97;;;33.60;97.20;;;;;;5055367;28;20033;-66
2023/10/30 09:37:48;;;;;;;121.60;82.85;;;33.60;97.60;;;;;;5055630;28;20475;-65
2023/10/30 09:40:15;;;;;;;123.03;80.88;;;33.60;97.70;;;;;;5055490;28;20469;-66
2023/10/30 09:42:52;;;;;;;125.00;82.38;;;33.40;99.90;;;;;;5054795;28;20414;-64
2023/10/30 09:45:22;;;;;;;152.27;104.40;;;33.50;99.90;;;;;;5055270;28;20393;-65
2023/10/30 09:47:55;;;;;;;155.57;100.18;;;33.50;99.90;;;;;;5055197;28;20028;-65
2023/10/30 09:50:24;;;;;;;120.40;81.15;;;33.40;99.90;;;;;;5055357;28;20049;-65
2023/10/30 09:52:54;;;;;;;123.88;84.80;;;33.40;99.90;;;;;;5055213;28;20029;-64
2023/10/30 09:55:24;;;;;;;122.18;87.95;;;33.40;99.90;;;;;;5054994;28;20036;-64
2023/10/30 09:57:52;;;;;;;151.60;111.28;;;33.30;99.90;;;;;;5055150;28;20054;-64
2023/10/30 10:00:19;;;;;;;118.95;87.50;;;33.30;99.90;;;;;;5055061;28;20107;-62
2023/10/30 10:02:47;;;;;;;113.88;82.65;;;33.30;99.90;;;;;;5054983;28;20362;-63
2023/10/30 10:05:15;;;;;;;133.90;97.03;;;33.20;99.90;;;;;;5054891;28;20036;-64
2023/10/30 10:07:41;;;;;;;170.48;117.78;;;33.30;99.90;;;;;;5055096;28;20025;-64
2023/10/30 10:10:09;;;;;;;212.75;131.07;;;33.20;99.90;;;;;;5054973;28;20021;-65
2023/10/30 10:12:36;;;;;;;187.80;118.20;;;33.20;99.90;;;;;;5054939;28;20028;-64
2023/10/30 10:15:06;;;;;;;165.38;114.10;;;33.20;99.90;;;;;;5054854;28;20049;-63
2023/10/30 10:17:44;;;;;;;166.90;112.47;;;33.20;99.90;;;;;;5054772;28;20025;-65
2023/10/30 10:20:12;;;;;;;157.40;108.88;;;33.20;99.90;;;;;;5054715;28;20025;-65
2023/10/30 10:22:39;;;;;;;144.27;105.47;;;33.20;99.90;;;;;;5054449;28;20543;-64
2023/10/30 10:33:30;;;;;;;171.38;124.65;;;32.80;97.10;;;;;;5111022;27;20381;-64
2023/10/30 10:36:00;;;;;;;135.98;100.80;;;32.70;99.90;;;;;;5110916;28;20023;-64
2023/10/30 10:38:28;;;;;;;146.15;107.55;;;32.60;99.90;;;;;;5110691;28;20099;-62
2023/10/30 10:40:56;;;;;;;164.93;124.72;;;32.60;99.90;;;;;;5111034;28;20106;-62
2023/10/30 10:43:24;;;;;;;270.90;197.38;;;32.60;99.90;;;;;;5110712;28;20028;-61
2023/10/30 10:45:53;;;;;;;164.00;115.93;;;32.70;99.90;;;;;;5110471;28;20028;-61
2023/10/30 10:48:22;;;;;;;163.25;108.13;;;32.70;99.90;;;;;;5110737;28;20020;-62
2023/10/30 10:50:49;;;;;;;110.40;70.57;;;32.80;99.90;;;;;;5110559;28;20153;-62
2023/10/30 10:53:21;;;;;;;98.97;68.95;;;32.70;99.90;;;;;;5110230;28;20389;-62
2023/10/30 10:55:48;;;;;;;;;;;32.60;99.90;;;;;;5102271;28;20024;-63
2023/10/30 10:58:24;;;;;;;146.25;98.07;;;32.60;99.90;;;;;;5107781;28;19908;-62
2023/10/30 11:00:52;;;;;;;99.18;63.70;;;32.60;99.90;;;;;;5110363;28;20020;-63
2023/10/30 11:03:21;;;;;;;85.28;52.97;;;32.60;99.90;;;;;;5110356;28;20035;-63
2023/10/30 11:05:50;;;;;;;82.32;49.47;;;32.60;99.90;;;;;;5110417;28;20035;-63
2023/10/30 11:08:21;;;;;;;79.18;50.33;;;32.50;99.90;;;;;;5103182;28;20031;-63
2023/10/30 11:11:04;;;;;;;85.57;50.97;;;32.50;99.90;;;;;;5090028;28;20115;-65
2023/10/30 11:13:31;;;;;;;93.60;58.13;;;32.50;99.90;;;;;;5080053;28;20107;-61
2023/10/30 11:16:14;;;;;;;92.50;59.10;;;32.50;99.90;;;;;;5078499;28;20025;-62
2023/10/30 11:18:41;;;;;;;90.80;59.75;;;32.40;99.90;;;;;;5079510;28;20371;-63
2023/10/30 11:21:09;;;;;;;110.80;68.80;;;32.40;99.90;;;;;;5078117;28;20025;-62
2023/10/30 11:23:57;;;;;;;136.63;86.35;;;32.40;99.90;;;;;;5079006;28;20024;-66
2023/10/30 11:26:36;;;;;;;135.43;85.38;;;32.40;99.90;;;;;;5077145;28;20525;-61
2023/10/30 11:29:07;;;;;;;133.23;85.35;;;32.20;99.90;;;;;;5077964;28;20095;-61
2023/10/30 11:31:52;;;;;;;130.75;87.20;;;32.10;99.90;;;;;;5076763;28;20080;-63
2023/10/30 11:34:23;;;;;;;140.02;89.82;;;32.10;99.90;;;;;;5077437;28;20035;-62
2023/10/30 11:36:52;;;;;;;133.40;88.18;;;32.10;99.90;;;;;;5079525;28;20082;-62
2023/10/30 11:39:21;;;;;;;144.48;90.80;;;32.20;99.90;;;;;;5078727;28;20059;-61
2023/10/30 11:41:53;;;;;;;142.73;90.32;;;32.20;99.90;;;;;;5077480;28;20067;-62
2023/10/30 11:44:20;;;;;;;;;;;32.10;99.90;;;;;;5067502;28;20409;-62
2023/10/30 11:46:51;;;;;;;137.38;92.88;;;32.10;99.90;;;;;;5065767;28;19947;-63
2023/10/30 11:49:21;;;;;;;143.63;92.35;;;32.00;99.90;;;;;;5064824;28;20053;-62
2023/10/30 11:51:52;;;;;;;140.50;92.10;;;31.90;99.90;;;;;;5063444;28;20040;-62
2023/10/30 11:54:36;;;;;;;138.07;90.57;;;31.90;99.90;;;;;;5064653;28;20279;-61
2023/10/30 11:57:03;;;;;;;139.82;91.65;;;31.90;99.90;;;;;;5064333;28;20016;-61
2023/10/30 11:59:30;;;;;;;120.55;85.30;;;31.90;99.90;;;;;;5065759;28;20025;-61
2023/10/30 12:01:57;;;;;;;133.15;86.30;;;31.80;99.90;;;;;;5064693;28;20049;-61
2023/10/30 12:04:25;;;;;;;156.57;107.78;;;31.80;99.90;;;;;;5063895;28;20032;-61
2023/10/30 12:06:53;;;;;;;135.50;93.80;;;31.80;99.90;;;;;;5065626;28;20315;-61
2023/10/30 12:09:21;;;;;;;134.32;85.55;;;31.80;99.90;;;;;;5064760;28;20362;-60
2023/10/30 12:11:49;;;;;;;135.05;90.43;;;31.80;99.90;;;;;;5063290;28;20064;-62
2023/10/30 12:14:19;;;;;;;157.32;107.95;;;31.70;99.90;;;;;;5062689;28;20100;-60
2023/10/30 12:16:51;;;;;;;141.15;92.72;;;31.70;99.90;;;;;;5064328;28;20047;-59
2023/10/30 12:19:20;;;;;;;166.68;114.80;;;31.60;99.90;;;;;;5065373;28;20024;-63
2023/10/30 12:21:48;;;;;;;148.05;98.38;;;31.60;99.90;;;;;;5064491;28;20040;-59
2023/10/30 12:24:18;;;;;;;165.38;109.45;;;31.60;99.90;;;;;;5060749;28;20040;-61